Time,TemperatureF,DewpointF,PressureIn,WindDirection,WindDirectionDegrees,WindSpeedMPH,WindSpeedGustMPH,Humidity,HourlyPrecipIn,Conditions,Clouds,dailyrainin,SoftwareType,DateUTC
2013-03-16 06:29:00,-2.0,-8.3,30.12,NE,45,0.0,0.0,74,0.00,,,0.00,Weather View 32 v70,2013-03-16 14:29:00,
2013-03-16 06:36:00,-2.4,-8.6,30.12,NE,45,0.0,0.0,74,0.00,,,0.00,Weather View 32 v70,2013-03-16 14:36:00,
2013-03-16 06:41:00,-2.4,-8.6,30.12,NE,45,0.0,0.0,74,0.00,,,0.00,Weather View 32 v70,2013-03-16 14:41:00,
2013-03-16 06:46:00,-2.7,-9.0,30.13,NE,45,0.0,0.0,74,0.00,,,0.00,Weather View 32 v70,2013-03-16 14:46:00,
2013-03-16 06:51:00,-2.7,-9.0,30.13,NE,45,0.0,0.0,74,0.00,,,0.00,Weather View 32 v70,2013-03-16 14:51:00,
2013-03-16 06:56:00,-2.6,-8.8,30.13,NE,45,0.0,0.0,74,0.00,,,0.00,Weather View 32 v70,2013-03-16 14:56:00,
2013-03-16 07:01:00,-2.7,-9.0,30.13,NE,45,0.0,0.0,74,0.00,,,0.00,Weather View 32 v70,2013-03-16 15:01:00,
2013-03-16 07:06:00,-3.1,-9.6,30.14,NE,45,0.0,0.0,73,0.00,,,0.00,Weather View 32 v70,2013-03-16 15:06:00,
2013-03-16 07:11:00,-3.3,-9.5,30.14,NE,45,0.0,0.0,74,0.00,,,0.00,Weather View 32 v70,2013-03-16 15:11:00,
2013-03-16 07:17:00,-3.3,-9.5,30.14,NE,45,0.0,0.0,74,0.00,,,0.00,Weather View 32 v70,2013-03-16 15:17:00,
2013-03-16 07:22:00,-3.5,-9.7,30.14,NE,45,0.0,0.0,74,0.00,,,0.00,Weather View 32 v70,2013-03-16 15:22:00,
2013-03-16 07:27:00,-3.5,-9.7,30.14,NE,45,0.0,0.0,74,0.00,,,0.00,Weather View 32 v70,2013-03-16 15:27:00,
2013-03-16 07:32:00,-3.5,-9.7,30.14,NE,45,0.0,0.0,74,0.00,,,0.00,Weather View 32 v70,2013-03-16 15:32:00,
2013-03-16 07:37:00,-3.5,-9.7,30.14,NE,45,0.0,0.0,74,0.00,,,0.00,Weather View 32 v70,2013-03-16 15:37:00,
2013-03-16 07:42:00,-3.5,-9.7,30.14,NE,45,0.0,0.0,74,0.00,,,0.00,Weather View 32 v70,2013-03-16 15:42:00,
2013-03-16 07:47:00,-3.5,-9.7,30.14,NE,45,0.0,0.0,74,0.00,,,0.00,Weather View 32 v70,2013-03-16 15:47:00,
2013-03-16 07:52:00,-3.8,-10.0,30.14,NE,45,0.0,0.0,74,0.00,,,0.00,Weather View 32 v70,2013-03-16 15:52:00,
2013-03-16 07:57:00,-3.5,-9.4,30.14,NE,45,0.0,0.0,75,0.00,,,0.00,Weather View 32 v70,2013-03-16 15:57:00,
2013-03-16 08:02:00,-3.5,-9.7,30.14,NE,45,0.0,0.0,74,0.00,,,0.00,Weather View 32 v70,2013-03-16 16:02:00,
2013-03-16 08:07:00,-4.0,-10.2,30.15,NE,45,0.0,0.0,74,0.00,,,0.00,Weather View 32 v70,2013-03-16 16:07:00,
2013-03-16 08:12:00,-4.0,-9.9,30.15,NE,45,0.0,0.0,75,0.00,,,0.00,Weather View 32 v70,2013-03-16 16:12:00,
2013-03-16 08:17:00,-3.8,-9.7,30.15,NE,45,0.0,0.0,75,0.00,,,0.00,Weather View 32 v70,2013-03-16 16:17:00,
2013-03-16 08:22:00,-4.0,-9.9,30.15,NE,45,0.0,0.0,75,0.00,,,0.00,Weather View 32 v70,2013-03-16 16:22:00,
2013-03-16 08:27:00,-4.2,-10.4,30.17,NE,45,0.0,0.0,74,0.00,,,0.00,Weather View 32 v70,2013-03-16 16:27:00,
2013-03-16 08:32:00,-4.2,-10.4,30.17,NE,45,0.0,0.0,74,0.00,,,0.00,Weather View 32 v70,2013-03-16 16:32:00,
2013-03-16 08:37:00,-4.2,-10.4,30.17,NE,45,0.0,0.0,74,0.00,,,0.00,Weather View 32 v70,2013-03-16 16:37:00,
2013-03-16 08:42:00,-4.2,-10.4,30.17,NE,45,0.0,0.0,74,0.00,,,0.00,Weather View 32 v70,2013-03-16 16:42:00,
2013-03-16 08:47:00,-4.2,-10.4,30.19,NE,45,0.0,0.0,74,0.00,,,0.00,Weather View 32 v70,2013-03-16 16:47:00,
2013-03-16 08:52:00,-4.2,-10.4,30.19,NE,45,0.0,0.0,74,0.00,,,0.00,Weather View 32 v70,2013-03-16 16:52:00,
2013-03-16 08:57:00,-4.2,-10.4,30.19,NE,45,0.0,0.0,74,0.00,,,0.00,Weather View 32 v70,2013-03-16 16:57:00,
2013-03-16 09:02:00,-4.2,-10.4,30.19,NE,45,0.0,0.0,74,0.00,,,0.00,Weather View 32 v70,2013-03-16 17:02:00,
2013-03-16 09:07:00,-4.0,-9.9,30.20,NE,45,0.0,0.0,75,0.00,,,0.00,Weather View 32 v70,2013-03-16 17:07:00,
2013-03-16 09:12:00,-3.5,-9.4,30.20,NE,45,0.0,0.0,75,0.00,,,0.00,Weather View 32 v70,2013-03-16 17:12:00,
2013-03-16 09:17:00,-3.3,-9.2,30.20,NE,45,0.0,0.0,75,0.00,,,0.00,Weather View 32 v70,2013-03-16 17:17:00,
2013-03-16 09:22:00,-2.7,-8.7,30.20,NE,45,0.0,0.0,75,0.00,,,0.00,Weather View 32 v70,2013-03-16 17:22:00,
2013-03-16 09:27:00,-2.6,-8.2,30.22,NE,45,0.0,0.0,76,0.00,,,0.00,Weather View 32 v70,2013-03-16 17:27:00,
2013-03-16 09:33:00,-2.0,-7.7,30.22,NE,45,0.0,0.0,76,0.00,,,0.00,Weather View 32 v70,2013-03-16 17:33:00,
2013-03-16 09:38:00,-1.7,-7.4,30.22,NE,45,0.0,0.0,76,0.00,,,0.00,Weather View 32 v70,2013-03-16 17:38:00,
2013-03-16 09:43:00,-1.3,-7.0,30.22,NE,45,0.0,0.0,76,0.00,,,0.00,Weather View 32 v70,2013-03-16 17:43:00,
2013-03-16 09:48:00,-0.6,-6.3,30.21,NE,45,0.0,0.0,76,0.00,,,0.00,Weather View 32 v70,2013-03-16 17:48:00,
2013-03-16 09:53:00,-0.2,-6.0,30.21,NE,45,0.0,0.0,76,0.00,,,0.00,Weather View 32 v70,2013-03-16 17:53:00,
2013-03-16 09:58:00,3.7,-1.8,30.21,NE,45,0.0,0.0,77,0.00,,,0.00,Weather View 32 v70,2013-03-16 17:58:00,
2013-03-16 10:03:00,3.2,-2.6,30.21,NE,45,0.0,0.0,76,0.00,,,0.00,Weather View 32 v70,2013-03-16 18:03:00,
2013-03-16 10:08:00,10.2,4.5,30.20,NE,45,0.0,0.0,77,0.00,,,0.00,Weather View 32 v70,2013-03-16 18:08:00,
2013-03-16 10:13:00,9.0,2.4,30.20,NE,45,0.0,0.0,74,0.00,,,0.00,Weather View 32 v70,2013-03-16 18:13:00,
2013-03-16 10:18:00,7.3,1.1,30.20,NE,45,0.0,0.0,75,0.00,,,0.00,Weather View 32 v70,2013-03-16 18:18:00,
2013-03-16 10:23:00,7.3,1.1,30.20,NE,45,0.0,0.0,75,0.00,,,0.00,Weather View 32 v70,2013-03-16 18:23:00,
2013-03-16 10:28:00,7.7,1.4,30.19,NE,45,0.0,0.0,75,0.00,,,0.00,Weather View 32 v70,2013-03-16 18:28:00,
2013-03-16 10:33:00,8.2,2.0,30.19,NE,45,1.0,1.0,75,0.00,,,0.00,Weather View 32 v70,2013-03-16 18:33:00,
2013-03-16 10:38:00,9.1,2.8,30.19,NE,45,1.0,1.0,75,0.00,,,0.00,Weather View 32 v70,2013-03-16 18:38:00,
2013-03-16 10:43:00,9.5,2.9,30.19,NE,45,2.0,2.0,74,0.00,,,0.00,Weather View 32 v70,2013-03-16 18:43:00,
2013-03-16 10:48:00,10.9,4.3,30.21,NE,45,2.0,2.0,74,0.00,,,0.00,Weather View 32 v70,2013-03-16 18:48:00,
2013-03-16 10:53:00,12.2,4.9,30.21,NE,45,2.0,2.0,72,0.00,,,0.00,Weather View 32 v70,2013-03-16 18:53:00,
2013-03-16 10:58:00,12.7,5.1,30.21,NE,45,2.0,2.0,71,0.00,,,0.00,Weather View 32 v70,2013-03-16 18:58:00,
2013-03-16 11:03:00,13.5,5.8,30.21,NE,45,2.0,2.0,71,0.00,,,0.00,Weather View 32 v70,2013-03-16 19:03:00,
2013-03-16 11:08:00,18.9,10.0,30.20,NNW,338,2.0,2.0,68,0.00,,,0.00,Weather View 32 v70,2013-03-16 19:08:00,
2013-03-16 11:13:00,18.0,8.2,30.20,NNW,338,2.0,2.0,65,0.00,,,0.00,Weather View 32 v70,2013-03-16 19:13:00,
2013-03-16 11:18:00,21.4,10.4,30.20,NNW,338,2.0,2.0,62,0.00,,,0.00,Weather View 32 v70,2013-03-16 19:18:00,
2013-03-16 11:23:00,26.4,13.2,30.20,NNW,338,2.0,2.0,57,0.00,,,0.00,Weather View 32 v70,2013-03-16 19:23:00,
2013-03-16 11:28:00,28.2,12.0,30.20,NNW,338,2.0,2.0,50,0.00,,,0.00,Weather View 32 v70,2013-03-16 19:28:00,
2013-03-16 11:33:00,29.7,12.8,30.20,NNW,338,2.0,2.0,49,0.00,,,0.00,Weather View 32 v70,2013-03-16 19:33:00,
2013-03-16 11:38:00,30.9,12.1,30.20,NNW,338,2.0,2.0,45,0.00,,,0.00,Weather View 32 v70,2013-03-16 19:38:00,
2013-03-16 11:43:00,26.8,8.3,30.20,NNW,338,2.0,2.0,45,0.00,,,0.00,Weather View 32 v70,2013-03-16 19:43:00,
2013-03-16 11:48:00,27.1,10.0,30.20,NW,315,4.0,4.0,48,0.00,,,0.00,Weather View 32 v70,2013-03-16 19:48:00,
2013-03-16 11:53:00,28.6,9.9,30.20,NNE,22,4.0,4.0,45,0.00,,,0.00,Weather View 32 v70,2013-03-16 19:53:00,
2013-03-16 11:58:00,27.5,8.9,30.20,NE,45,4.0,4.0,45,0.00,,,0.00,Weather View 32 v70,2013-03-16 19:58:00,
2013-03-16 12:03:00,28.6,9.4,30.20,NNW,338,4.0,4.0,44,0.00,,,0.00,Weather View 32 v70,2013-03-16 20:03:00,
2013-03-16 12:08:00,28.6,9.4,30.19,NNW,338,4.0,4.0,44,0.00,,,0.00,Weather View 32 v70,2013-03-16 20:08:00,
2013-03-16 12:13:00,27.1,8.6,30.19,NNW,338,4.0,4.0,45,0.00,,,0.00,Weather View 32 v70,2013-03-16 20:13:00,
2013-03-16 12:18:00,29.7,10.4,30.19,NW,315,4.0,4.0,44,0.00,,,0.00,Weather View 32 v70,2013-03-16 20:18:00,
2013-03-16 12:23:00,29.7,9.4,30.19,NNW,338,4.0,4.0,42,0.00,,,0.00,Weather View 32 v70,2013-03-16 20:23:00,
2013-03-16 12:28:00,29.3,9.0,30.20,NNW,338,4.0,4.0,42,0.00,,,0.00,Weather View 32 v70,2013-03-16 20:28:00,
2013-03-16 12:33:00,30.6,9.6,30.20,NNW,338,3.0,4.0,41,0.00,,,0.00,Weather View 32 v70,2013-03-16 20:33:00,
2013-03-16 12:38:00,32.7,10.5,30.20,NW,315,3.0,4.0,39,0.00,,,0.00,Weather View 32 v70,2013-03-16 20:38:00,
2013-03-16 12:44:00,34.9,11.8,30.20,NNW,338,3.0,4.0,38,0.00,,,0.00,Weather View 32 v70,2013-03-16 20:44:00,
2013-03-16 12:49:00,38.5,13.2,30.21,NNW,338,3.0,4.0,35,0.00,,,0.00,Weather View 32 v70,2013-03-16 20:49:00,
2013-03-16 12:54:00,41.9,13.4,30.21,NNW,338,3.0,4.0,31,0.00,,,0.00,Weather View 32 v70,2013-03-16 20:54:00,
2013-03-16 12:59:00,44.2,13.9,30.21,NNW,338,3.0,4.0,29,0.00,,,0.00,Weather View 32 v70,2013-03-16 20:59:00,
2013-03-16 13:04:00,46.4,13.3,30.21,NNW,338,3.0,4.0,26,0.00,,,0.00,Weather View 32 v70,2013-03-16 21:04:00,
2013-03-16 13:09:00,49.1,14.7,30.21,NNW,338,2.0,4.0,25,0.00,,,0.00,Weather View 32 v70,2013-03-16 21:09:00,
2013-03-16 13:14:00,50.4,13.9,30.21,NW,315,2.0,4.0,23,0.00,,,0.00,Weather View 32 v70,2013-03-16 21:14:00,
2013-03-16 13:19:00,50.2,12.7,30.21,NNW,338,3.0,4.0,22,0.00,,,0.00,Weather View 32 v70,2013-03-16 21:19:00,
2013-03-16 13:24:00,50.5,13.0,30.22,NNE,22,3.0,4.0,22,0.00,,,0.00,Weather View 32 v70,2013-03-16 21:24:00,
2013-03-16 13:29:00,51.4,12.7,30.22,NW,315,3.0,4.0,21,0.00,,,0.00,Weather View 32 v70,2013-03-16 21:29:00,
2013-03-16 13:34:00,52.0,12.1,30.22,NNW,338,3.0,3.0,20,0.00,,,0.00,Weather View 32 v70,2013-03-16 21:34:00,
2013-03-16 13:39:00,51.8,11.9,30.22,NNW,338,3.0,3.0,20,0.00,,,0.00,Weather View 32 v70,2013-03-16 21:39:00,
2013-03-16 13:44:00,51.4,10.5,30.22,NNE,22,4.0,4.0,19,0.00,,,0.00,Weather View 32 v70,2013-03-16 21:44:00,
2013-03-16 13:49:00,51.6,11.8,30.22,NNW,338,4.0,4.0,20,0.00,,,0.00,Weather View 32 v70,2013-03-16 21:49:00,
2013-03-16 13:54:00,52.9,11.7,30.22,North,0,3.0,4.0,19,0.00,,,0.00,Weather View 32 v70,2013-03-16 21:54:00,
2013-03-16 13:59:00,51.8,10.8,30.22,NNW,338,3.0,4.0,19,0.00,,,0.00,Weather View 32 v70,2013-03-16 21:59:00,
2013-03-16 14:03:00,52.7,10.3,30.22,NNE,22,3.0,4.0,18,0.00,,,0.00,Weather View 32 v70,2013-03-16 22:03:00,
2013-03-16 14:08:00,51.8,9.6,30.22,NNE,22,3.0,4.0,18,0.00,,,0.00,Weather View 32 v70,2013-03-16 22:08:00,
2013-03-16 14:13:00,51.6,9.4,30.22,NNE,22,3.0,4.0,18,0.00,,,0.00,Weather View 32 v70,2013-03-16 22:13:00,
2013-03-16 14:18:00,52.7,10.3,30.22,NNW,338,3.0,4.0,18,0.00,,,0.00,Weather View 32 v70,2013-03-16 22:18:00,
2013-03-16 14:23:00,51.4,9.3,30.22,ENE,68,3.0,4.0,18,0.00,,,0.00,Weather View 32 v70,2013-03-16 22:23:00,
2013-03-16 14:28:00,49.8,9.1,30.22,NNE,22,4.0,4.0,19,0.00,,,0.00,Weather View 32 v70,2013-03-16 22:28:00,
2013-03-16 14:33:00,47.1,8.0,30.22,ENE,68,4.0,4.0,20,0.00,,,0.00,Weather View 32 v70,2013-03-16 22:33:00,
2013-03-16 14:38:00,48.4,9.1,30.22,North,0,4.0,4.0,20,0.00,,,0.00,Weather View 32 v70,2013-03-16 22:38:00,
2013-03-16 14:43:00,49.8,9.1,30.22,ENE,68,4.0,4.0,19,0.00,,,0.00,Weather View 32 v70,2013-03-16 22:43:00,
2013-03-16 14:48:00,49.1,9.7,30.22,NNE,22,3.0,4.0,20,0.00,,,0.00,Weather View 32 v70,2013-03-16 22:48:00,
2013-03-16 14:53:00,46.8,7.7,30.22,NNW,338,3.0,4.0,20,0.00,,,0.00,Weather View 32 v70,2013-03-16 22:53:00,
2013-03-16 14:58:00,43.7,6.3,30.22,North,0,3.0,4.0,21,0.00,,,0.00,Weather View 32 v70,2013-03-16 22:58:00,
2013-03-16 15:03:00,38.7,6.7,30.23,NNW,338,3.0,4.0,26,0.00,,,0.00,Weather View 32 v70,2013-03-16 23:03:00,
2013-03-16 15:08:00,37.8,6.7,30.23,NNE,22,3.0,4.0,27,0.00,,,0.00,Weather View 32 v70,2013-03-16 23:08:00,
2013-03-16 15:13:00,36.3,6.3,30.23,NNW,338,3.0,4.0,28,0.00,,,0.00,Weather View 32 v70,2013-03-16 23:13:00,
2013-03-16 15:18:00,35.8,6.6,30.23,NNW,338,3.0,4.0,29,0.00,,,0.00,Weather View 32 v70,2013-03-16 23:18:00,
2013-03-16 15:23:00,35.1,6.7,30.23,NNW,338,3.0,4.0,30,0.00,,,0.00,Weather View 32 v70,2013-03-16 23:23:00,
2013-03-16 15:29:00,34.7,6.4,30.23,NNW,338,3.0,4.0,30,0.00,,,0.00,Weather View 32 v70,2013-03-16 23:29:00,
2013-03-16 15:34:00,34.3,7.5,30.23,NNE,22,3.0,4.0,32,0.00,,,0.00,Weather View 32 v70,2013-03-16 23:34:00,
2013-03-16 15:39:00,33.8,6.3,30.23,NNE,22,2.0,4.0,31,0.00,,,0.00,Weather View 32 v70,2013-03-16 23:39:00,
2013-03-16 15:44:00,33.4,6.7,30.23,North,0,2.0,4.0,32,0.00,,,0.00,Weather View 32 v70,2013-03-16 23:44:00,
2013-03-16 15:49:00,33.3,6.6,30.23,North,0,3.0,3.0,32,0.00,,,0.00,Weather View 32 v70,2013-03-16 23:49:00,
2013-03-16 15:54:00,32.9,6.9,30.23,North,0,2.0,3.0,33,0.00,,,0.00,Weather View 32 v70,2013-03-16 23:54:00,
2013-03-16 15:59:00,32.9,6.9,30.23,NNW,338,2.0,3.0,33,0.00,,,0.00,Weather View 32 v70,2013-03-16 23:59:00,
2013-03-16 16:04:00,33.1,7.1,30.23,NNE,22,2.0,3.0,33,0.00,,,0.00,Weather View 32 v70,2013-03-17 00:04:00,
2013-03-16 16:09:00,33.3,7.2,30.23,NNE,22,3.0,3.0,33,0.00,,,0.00,Weather View 32 v70,2013-03-17 00:09:00,
2013-03-16 16:14:00,33.3,7.2,30.23,North,0,3.0,3.0,33,0.00,,,0.00,Weather View 32 v70,2013-03-17 00:14:00,
2013-03-16 16:19:00,33.4,7.4,30.23,NNW,338,3.0,3.0,33,0.00,,,0.00,Weather View 32 v70,2013-03-17 00:19:00,
2013-03-16 16:24:00,33.3,7.2,30.23,NNE,22,3.0,3.0,33,0.00,,,0.00,Weather View 32 v70,2013-03-17 00:24:00,
2013-03-16 16:29:00,33.3,7.2,30.23,NE,45,3.0,3.0,33,0.00,,,0.00,Weather View 32 v70,2013-03-17 00:29:00,
2013-03-16 16:33:00,33.3,7.2,30.23,NNE,22,3.0,3.0,33,0.00,,,0.00,Weather View 32 v70,2013-03-17 00:33:00,
2013-03-16 16:39:00,33.3,6.6,30.23,North,0,2.0,3.0,32,0.00,,,0.00,Weather View 32 v70,2013-03-17 00:39:00,
2013-03-16 16:44:00,32.9,6.2,30.23,NNE,22,2.0,3.0,32,0.00,,,0.00,Weather View 32 v70,2013-03-17 00:44:00,
2013-03-16 16:49:00,32.9,6.9,30.24,NNE,22,2.0,3.0,33,0.00,,,0.00,Weather View 32 v70,2013-03-17 00:49:00,
2013-03-16 16:53:00,32.9,6.2,30.24,North,0,3.0,3.0,32,0.00,,,0.00,Weather View 32 v70,2013-03-17 00:53:00,
2013-03-16 16:58:00,32.9,6.2,30.24,NNE,22,3.0,3.0,32,0.00,,,0.00,Weather View 32 v70,2013-03-17 00:58:00,
2013-03-16 17:04:00,32.9,6.9,30.24,NE,45,3.0,3.0,33,0.00,,,0.00,Weather View 32 v70,2013-03-17 01:04:00,
2013-03-16 17:09:00,32.7,6.8,30.24,NNE,22,3.0,3.0,33,0.00,,,0.00,Weather View 32 v70,2013-03-17 01:09:00,
2013-03-16 17:14:00,32.7,6.8,30.24,NNE,22,2.0,3.0,33,0.00,,,0.00,Weather View 32 v70,2013-03-17 01:14:00,
2013-03-16 17:19:00,32.9,6.2,30.24,NE,45,2.0,3.0,32,0.00,,,0.00,Weather View 32 v70,2013-03-17 01:19:00,
2013-03-16 17:24:00,32.7,6.8,30.24,NE,45,3.0,3.0,33,0.00,,,0.00,Weather View 32 v70,2013-03-17 01:24:00,
2013-03-16 17:29:00,32.7,6.8,30.24,NE,45,2.0,3.0,33,0.00,,,0.00,Weather View 32 v70,2013-03-17 01:29:00,
2013-03-16 17:34:00,32.5,6.6,30.24,NE,45,2.0,3.0,33,0.00,,,0.00,Weather View 32 v70,2013-03-17 01:34:00,
2013-03-16 17:39:00,32.7,6.8,30.24,NNE,22,2.0,3.0,33,0.00,,,0.00,Weather View 32 v70,2013-03-17 01:39:00,
2013-03-16 17:43:00,32.5,6.6,30.25,NE,45,3.0,3.0,33,0.00,,,0.00,Weather View 32 v70,2013-03-17 01:43:00,
2013-03-16 17:48:00,32.0,6.1,30.25,ENE,68,3.0,3.0,33,0.00,,,0.00,Weather View 32 v70,2013-03-17 01:48:00,
2013-03-16 17:53:00,32.0,6.8,30.25,ENE,68,3.0,3.0,34,0.00,,,0.00,Weather View 32 v70,2013-03-17 01:53:00,
2013-03-16 17:58:00,31.8,6.0,30.25,NNE,22,3.0,3.0,33,0.00,,,0.00,Weather View 32 v70,2013-03-17 01:58:00,
2013-03-16 18:03:00,31.8,6.0,30.25,NNE,22,3.0,3.0,33,0.00,,,0.00,Weather View 32 v70,2013-03-17 02:03:00,
2013-03-16 18:08:00,31.5,6.3,30.25,ENE,68,3.0,3.0,34,0.00,,,0.00,Weather View 32 v70,2013-03-17 02:08:00,
2013-03-16 18:13:00,31.5,5.6,30.25,ENE,68,4.0,4.0,33,0.00,,,0.00,Weather View 32 v70,2013-03-17 02:13:00,
2013-03-16 18:18:00,31.1,6.0,30.25,ENE,68,4.0,4.0,34,0.00,,,0.00,Weather View 32 v70,2013-03-17 02:18:00,
2013-03-16 18:23:00,31.1,5.3,30.25,ENE,68,4.0,4.0,33,0.00,,,0.00,Weather View 32 v70,2013-03-17 02:23:00,
2013-03-16 18:28:00,30.7,5.7,30.25,NE,45,4.0,4.0,34,0.00,,,0.00,Weather View 32 v70,2013-03-17 02:28:00,
2013-03-16 18:33:00,30.4,6.0,30.25,ENE,68,3.0,4.0,35,0.00,,,0.00,Weather View 32 v70,2013-03-17 02:33:00,
2013-03-16 18:38:00,30.4,6.6,30.25,NE,45,3.0,4.0,36,0.00,,,0.00,Weather View 32 v70,2013-03-17 02:38:00,
2013-03-16 18:43:00,29.7,6.6,30.25,ENE,68,3.0,4.0,37,0.00,,,0.00,Weather View 32 v70,2013-03-17 02:43:00,
2013-03-16 18:48:00,29.7,6.6,30.27,ENE,68,3.0,4.0,37,0.00,,,0.00,Weather View 32 v70,2013-03-17 02:48:00,
2013-03-16 18:53:00,29.7,6.0,30.27,NNE,22,3.0,4.0,36,0.00,,,0.00,Weather View 32 v70,2013-03-17 02:53:00,
2013-03-16 18:58:00,29.5,6.4,30.27,NE,45,3.0,4.0,37,0.00,,,0.00,Weather View 32 v70,2013-03-17 02:58:00,
2013-03-16 19:03:00,29.3,6.2,30.26,ENE,68,2.0,4.0,37,0.00,,,0.00,Weather View 32 v70,2013-03-17 03:03:00,
2013-03-16 19:08:00,29.3,6.2,30.26,NNE,22,2.0,4.0,37,0.00,,,0.00,Weather View 32 v70,2013-03-17 03:08:00,
2013-03-16 19:13:00,28.9,5.9,30.26,NE,45,3.0,4.0,37,0.00,,,0.00,Weather View 32 v70,2013-03-17 03:13:00,
2013-03-16 19:18:00,28.4,5.4,30.26,ENE,68,3.0,4.0,37,0.00,,,0.00,Weather View 32 v70,2013-03-17 03:18:00,
2013-03-16 19:23:00,28.6,4.4,30.26,NE,45,3.0,4.0,35,0.00,,,0.00,Weather View 32 v70,2013-03-17 03:23:00,
2013-03-16 19:28:00,28.2,4.1,30.26,NE,45,3.0,4.0,35,0.00,,,0.00,Weather View 32 v70,2013-03-17 03:28:00,
2013-03-16 19:33:00,27.9,3.7,30.26,NE,45,3.0,3.0,35,0.00,,,0.00,Weather View 32 v70,2013-03-17 03:33:00,
2013-03-16 19:38:00,27.5,4.0,30.26,NE,45,2.0,3.0,36,0.00,,,0.00,Weather View 32 v70,2013-03-17 03:38:00,
2013-03-16 19:43:00,27.5,4.0,30.26,NE,45,2.0,3.0,36,0.00,,,0.00,Weather View 32 v70,2013-03-17 03:43:00,
2013-03-16 19:48:00,27.0,4.1,30.26,NE,45,1.0,3.0,37,0.00,,,0.00,Weather View 32 v70,2013-03-17 03:48:00,
2013-03-16 19:53:00,26.8,4.0,30.26,NE,45,2.0,3.0,37,0.00,,,0.00,Weather View 32 v70,2013-03-17 03:53:00,
2013-03-16 19:58:00,26.2,4.1,30.26,NE,45,2.0,3.0,38,0.00,,,0.00,Weather View 32 v70,2013-03-17 03:58:00,
2013-03-16 20:00:00,26.2,4.1,30.26,NE,45,2.0,3.0,38,0.00,,,0.00,Weather View 32 v70,2013-03-17 04:00:00,
2013-03-16 20:05:00,25.3,3.8,30.27,NE,45,1.0,3.0,39,0.00,,,0.00,Weather View 32 v70,2013-03-17 04:05:00,
2013-03-16 20:10:00,24.8,3.3,30.27,NE,45,1.0,3.0,39,0.00,,,0.00,Weather View 32 v70,2013-03-17 04:10:00,
2013-03-16 20:15:00,24.6,3.2,30.27,NE,45,2.0,3.0,39,0.00,,,0.00,Weather View 32 v70,2013-03-17 04:15:00,
2013-03-16 20:20:00,24.3,3.9,30.27,NE,45,2.0,3.0,41,0.00,,,0.00,Weather View 32 v70,2013-03-17 04:20:00,
2013-03-16 20:25:00,23.9,4.1,30.26,NE,45,1.0,3.0,42,0.00,,,0.00,Weather View 32 v70,2013-03-17 04:25:00,
2013-03-16 20:30:00,23.4,4.7,30.26,NE,45,0.0,3.0,44,0.00,,,0.00,Weather View 32 v70,2013-03-17 04:30:00,
2013-03-16 20:35:00,23.2,5.0,30.26,NE,45,0.0,3.0,45,0.00,,,0.00,Weather View 32 v70,2013-03-17 04:35:00,
2013-03-16 20:40:00,22.5,5.3,30.26,NE,45,0.0,2.0,47,0.00,,,0.00,Weather View 32 v70,2013-03-17 04:40:00,